Fairview, Pennsylvania
Current Conditions -  °F | °C
As of 3:51 PM on Saturday 25 Oct 2014 (Local Time) from KERI Reporting Station
Overcast Overcast  
Wind Chill: 59°   Ceiling: 2000
Heat Index: 59°   Visibility: 7mi
Dew Point: 52°   Wind: 15mph
Humidity: 78%   Direction: 250°WSW
Pressure: 29.72"   Gusts: 23mph
Location:  42.03°N, 80.25°W
Report Text: KERI 251951Z 25013G20KT 7SM OVC020 15/11 A2972 RMK AO2 SLP066 T01500111
Loading
Personal Weather Stations






























Interactive Weather Map
Tropical Storm Tracking
New forecast layout! Learn more

10-Day Weather Forecast

Advertisements
Track Severe Weather on mobile